sensor_id;sensor_type;location;lat;lon;timestamp;P1;durP1;ratioP1;P2;durP2;ratioP2
10659;SDS011;5378;53.206;13.316;2023-08-01T00:02:31;5.70;;;2.90;;
10659;SDS011;5378;53.206;13.316;2023-08-01T00:05:19;6.40;;;2.77;;
10659;SDS011;5378;53.206;13.316;2023-08-01T00:08:07;4.13;;;2.53;;
10659;SDS011;5378;53.206;13.316;2023-08-01T00:10:54;6.07;;;3.40;;
10659;SDS011;5378;53.206;13.316;2023-08-01T00:13:41;7.50;;;3.47;;
10659;SDS011;5378;53.206;13.316;2023-08-01T00:16:29;7.23;;;4.10;;
10659;SDS011;5378;53.206;13.316;2023-08-01T00:19:18;8.00;;;3.30;;
10659;SDS011;5378;53.206;13.316;2023-08-01T00:22:05;6.83;;;3.40;;
10659;SDS011;5378;53.206;13.316;2023-08-01T00:24:54;14.03;;;4.00;;
10659;SDS011;5378;53.206;13.316;2023-08-01T00:27:42;6.27;;;3.67;;
10659;SDS011;5378;53.206;13.316;2023-08-01T00:30:29;8.17;;;3.30;;
10659;SDS011;5378;53.206;13.316;2023-08-01T00:33:16;6.67;;;4.13;;
10659;SDS011;5378;53.206;13.316;2023-08-01T00:36:03;6.47;;;4.13;;
10659;SDS011;5378;53.206;13.316;2023-08-01T00:38:54;8.70;;;3.40;;
10659;SDS011;5378;53.206;13.316;2023-08-01T00:41:43;4.43;;;3.03;;
10659;SDS011;5378;53.206;13.316;2023-08-01T00:44:30;11.97;;;4.23;;
10659;SDS011;5378;53.206;13.316;2023-08-01T00:47:17;12.33;;;4.80;;
10659;SDS011;5378;53.206;13.316;2023-08-01T00:50:05;4.70;;;3.30;;
10659;SDS011;5378;53.206;13.316;2023-08-01T00:52:54;5.80;;;3.60;;
10659;SDS011;5378;53.206;13.316;2023-08-01T00:55:41;6.43;;;4.13;;
10659;SDS011;5378;53.206;13.316;2023-08-01T00:58:31;11.03;;;4.80;;
10659;SDS011;5378;53.206;13.316;2023-08-01T01:01:18;7.37;;;3.57;;
10659;SDS011;5378;53.206;13.316;2023-08-01T01:04:05;17.80;;;4.30;;
10659;SDS011;5378;53.206;13.316;2023-08-01T01:06:54;8.63;;;4.63;;
10659;SDS011;5378;53.206;13.316;2023-08-01T01:09:46;8.13;;;4.20;;
10659;SDS011;5378;53.206;13.316;2023-08-01T01:12:33;11.07;;;4.07;;
10659;SDS011;5378;53.206;13.316;2023-08-01T01:15:22;6.60;;;3.70;;
10659;SDS011;5378;53.206;13.316;2023-08-01T01:18:09;12.40;;;4.50;;
10659;SDS011;5378;53.206;13.316;2023-08-01T01:20:57;8.00;;;4.03;;
10659;SDS011;5378;53.206;13.316;2023-08-01T01:23:44;7.63;;;4.30;;
10659;SDS011;5378;53.206;13.316;2023-08-01T01:26:33;5.50;;;3.50;;
10659;SDS011;5378;53.206;13.316;2023-08-01T01:29:21;12.40;;;3.73;;
10659;SDS011;5378;53.206;13.316;2023-08-01T01:32:09;10.73;;;5.73;;
10659;SDS011;5378;53.206;13.316;2023-08-01T01:34:56;10.30;;;5.00;;
10659;SDS011;5378;53.206;13.316;2023-08-01T01:37:45;9.90;;;4.20;;
10659;SDS011;5378;53.206;13.316;2023-08-01T01:40:32;6.43;;;3.90;;
10659;SDS011;5378;53.206;13.316;2023-08-01T01:43:20;10.47;;;4.27;;
10659;SDS011;5378;53.206;13.316;2023-08-01T01:46:07;8.33;;;4.50;;
10659;SDS011;5378;53.206;13.316;2023-08-01T01:48:54;6.80;;;3.80;;
10659;SDS011;5378;53.206;13.316;2023-08-01T01:51:43;11.53;;;5.00;;
10659;SDS011;5378;53.206;13.316;2023-08-01T01:54:31;6.60;;;4.07;;
10659;SDS011;5378;53.206;13.316;2023-08-01T01:57:18;14.20;;;6.13;;
10659;SDS011;5378;53.206;13.316;2023-08-01T02:00:06;8.30;;;5.00;;
10659;SDS011;5378;53.206;13.316;2023-08-01T02:02:58;10.53;;;4.37;;
10659;SDS011;5378;53.206;13.316;2023-08-01T02:05:46;10.77;;;4.50;;
10659;SDS011;5378;53.206;13.316;2023-08-01T02:08:33;7.97;;;4.07;;
10659;SDS011;5378;53.206;13.316;2023-08-01T02:11:21;7.47;;;3.63;;
10659;SDS011;5378;53.206;13.316;2023-08-01T02:14:09;6.83;;;3.67;;
10659;SDS011;5378;53.206;13.316;2023-08-01T02:16:56;11.33;;;4.13;;
10659;SDS011;5378;53.206;13.316;2023-08-01T02:19:43;7.47;;;4.10;;
10659;SDS011;5378;53.206;13.316;2023-08-01T02:22:30;8.90;;;3.80;;
10659;SDS011;5378;53.206;13.316;2023-08-01T02:25:17;5.10;;;3.80;;
10659;SDS011;5378;53.206;13.316;2023-08-01T02:28:06;7.33;;;3.67;;
10659;SDS011;5378;53.206;13.316;2023-08-01T02:30:54;9.07;;;4.10;;
10659;SDS011;5378;53.206;13.316;2023-08-01T02:33:41;6.13;;;3.53;;
10659;SDS011;5378;53.206;13.316;2023-08-01T02:36:28;5.73;;;4.13;;
10659;SDS011;5378;53.206;13.316;2023-08-01T02:39:15;5.53;;;3.57;;
10659;SDS011;5378;53.206;13.316;2023-08-01T02:42:02;10.93;;;4.37;;
10659;SDS011;5378;53.206;13.316;2023-08-01T02:44:51;7.00;;;3.50;;
10659;SDS011;5378;53.206;13.316;2023-08-01T02:47:39;7.50;;;3.30;;
10659;SDS011;5378;53.206;13.316;2023-08-01T02:50:25;4.90;;;2.57;;
10659;SDS011;5378;53.206;13.316;2023-08-01T02:53:13;4.60;;;2.60;;
10659;SDS011;5378;53.206;13.316;2023-08-01T02:56:00;5.10;;;2.87;;
10659;SDS011;5378;53.206;13.316;2023-08-01T02:58:47;4.70;;;2.80;;
10659;SDS011;5378;53.206;13.316;2023-08-01T03:01:38;7.50;;;3.10;;
10659;SDS011;5378;53.206;13.316;2023-08-01T03:04:26;3.53;;;2.60;;
10659;SDS011;5378;53.206;13.316;2023-08-01T03:07:21;4.97;;;2.70;;
10659;SDS011;5378;53.206;13.316;2023-08-01T03:10:08;4.57;;;2.87;;
10659;SDS011;5378;53.206;13.316;2023-08-01T03:12:59;5.00;;;2.30;;
10659;SDS011;5378;53.206;13.316;2023-08-01T03:15:46;4.83;;;2.47;;
10659;SDS011;5378;53.206;13.316;2023-08-01T03:18:35;3.47;;;2.63;;
10659;SDS011;5378;53.206;13.316;2023-08-01T03:21:22;2.93;;;1.73;;
10659;SDS011;5378;53.206;13.316;2023-08-01T03:24:09;7.50;;;3.30;;
10659;SDS011;5378;53.206;13.316;2023-08-01T03:26:57;3.60;;;2.40;;
10659;SDS011;5378;53.206;13.316;2023-08-01T03:29:44;4.20;;;3.13;;
10659;SDS011;5378;53.206;13.316;2023-08-01T03:32:31;3.70;;;2.43;;
10659;SDS011;5378;53.206;13.316;2023-08-01T03:35:20;6.50;;;2.17;;
10659;SDS011;5378;53.206;13.316;2023-08-01T03:38:07;1.60;;;1.50;;
10659;SDS011;5378;53.206;13.316;2023-08-01T03:40:54;5.50;;;2.33;;
10659;SDS011;5378;53.206;13.316;2023-08-01T03:43:41;2.53;;;1.80;;
10659;SDS011;5378;53.206;13.316;2023-08-01T03:46:29;4.60;;;2.20;;
10659;SDS011;5378;53.206;13.316;2023-08-01T03:49:16;3.83;;;1.87;;
10659;SDS011;5378;53.206;13.316;2023-08-01T03:52:05;3.87;;;2.47;;
10659;SDS011;5378;53.206;13.316;2023-08-01T03:54:54;2.30;;;2.10;;
10659;SDS011;5378;53.206;13.316;2023-08-01T03:57:42;3.20;;;2.20;;
10659;SDS011;5378;53.206;13.316;2023-08-01T04:00:29;5.43;;;2.17;;
10659;SDS011;5378;53.206;13.316;2023-08-01T04:03:18;3.30;;;2.13;;
10659;SDS011;5378;53.206;13.316;2023-08-01T04:06:05;10.30;;;1.53;;
10659;SDS011;5378;53.206;13.316;2023-08-01T04:08:53;2.63;;;1.87;;
10659;SDS011;5378;53.206;13.316;2023-08-01T04:11:42;5.87;;;2.60;;
10659;SDS011;5378;53.206;13.316;2023-08-01T04:14:29;2.67;;;1.90;;
10659;SDS011;5378;53.206;13.316;2023-08-01T04:17:16;2.07;;;1.53;;
10659;SDS011;5378;53.206;13.316;2023-08-01T04:20:03;8.83;;;2.47;;
10659;SDS011;5378;53.206;13.316;2023-08-01T04:22:51;2.90;;;2.07;;
10659;SDS011;5378;53.206;13.316;2023-08-01T04:25:40;2.10;;;1.67;;
10659;SDS011;5378;53.206;13.316;2023-08-01T04:28:28;3.43;;;2.13;;
10659;SDS011;5378;53.206;13.316;2023-08-01T04:31:16;5.27;;;1.93;;
10659;SDS011;5378;53.206;13.316;2023-08-01T04:34:03;2.63;;;1.73;;
10659;SDS011;5378;53.206;13.316;2023-08-01T04:36:50;2.50;;;1.73;;
10659;SDS011;5378;53.206;13.316;2023-08-01T04:39:37;4.93;;;2.70;;
10659;SDS011;5378;53.206;13.316;2023-08-01T04:42:26;6.30;;;2.50;;
10659;SDS011;5378;53.206;13.316;2023-08-01T04:45:14;7.23;;;1.90;;
10659;SDS011;5378;53.206;13.316;2023-08-01T04:48:02;1.83;;;1.57;;
10659;SDS011;5378;53.206;13.316;2023-08-01T04:50:50;5.10;;;2.60;;
10659;SDS011;5378;53.206;13.316;2023-08-01T04:53:37;8.63;;;2.30;;
10659;SDS011;5378;53.206;13.316;2023-08-01T04:56:24;3.27;;;1.73;;
10659;SDS011;5378;53.206;13.316;2023-08-01T04:59:12;3.43;;;2.00;;
10659;SDS011;5378;53.206;13.316;2023-08-01T05:01:59;4.27;;;2.30;;
10659;SDS011;5378;53.206;13.316;2023-08-01T05:04:47;2.67;;;1.40;;
10659;SDS011;5378;53.206;13.316;2023-08-01T05:07:34;3.43;;;1.97;;
10659;SDS011;5378;53.206;13.316;2023-08-01T05:10:21;2.20;;;1.43;;
10659;SDS011;5378;53.206;13.316;2023-08-01T05:13:08;3.10;;;2.13;;
10659;SDS011;5378;53.206;13.316;2023-08-01T05:15:56;5.93;;;2.10;;
10659;SDS011;5378;53.206;13.316;2023-08-01T05:18:43;8.00;;;1.77;;
10659;SDS011;5378;53.206;13.316;2023-08-01T05:21:30;3.50;;;1.67;;
10659;SDS011;5378;53.206;13.316;2023-08-01T05:24:17;3.97;;;2.00;;
10659;SDS011;5378;53.206;13.316;2023-08-01T05:27:04;8.07;;;2.30;;
10659;SDS011;5378;53.206;13.316;2023-08-01T05:29:52;2.50;;;1.87;;
10659;SDS011;5378;53.206;13.316;2023-08-01T05:32:41;4.23;;;2.50;;
10659;SDS011;5378;53.206;13.316;2023-08-01T05:35:29;2.30;;;1.53;;
10659;SDS011;5378;53.206;13.316;2023-08-01T05:38:16;3.60;;;2.47;;
10659;SDS011;5378;53.206;13.316;2023-08-01T05:41:03;3.60;;;2.10;;
10659;SDS011;5378;53.206;13.316;2023-08-01T05:43:50;4.80;;;2.27;;
10659;SDS011;5378;53.206;13.316;2023-08-01T05:46:38;2.40;;;2.20;;
10659;SDS011;5378;53.206;13.316;2023-08-01T05:49:27;2.50;;;2.00;;
10659;SDS011;5378;53.206;13.316;2023-08-01T05:52:15;2.40;;;1.80;;
10659;SDS011;5378;53.206;13.316;2023-08-01T05:55:02;2.63;;;1.60;;
10659;SDS011;5378;53.206;13.316;2023-08-01T05:57:49;2.50;;;1.73;;
10659;SDS011;5378;53.206;13.316;2023-08-01T06:00:38;3.20;;;1.90;;
10659;SDS011;5378;53.206;13.316;2023-08-01T06:03:25;4.50;;;1.90;;
10659;SDS011;5378;53.206;13.316;2023-08-01T06:06:14;4.63;;;2.10;;
10659;SDS011;5378;53.206;13.316;2023-08-01T06:09:01;6.80;;;2.20;;
10659;SDS011;5378;53.206;13.316;2023-08-01T06:11:48;2.83;;;2.17;;
10659;SDS011;5378;53.206;13.316;2023-08-01T06:14:35;3.87;;;2.03;;
10659;SDS011;5378;53.206;13.316;2023-08-01T06:17:22;2.87;;;2.17;;
10659;SDS011;5378;53.206;13.316;2023-08-01T06:20:10;3.43;;;2.00;;
10659;SDS011;5378;53.206;13.316;2023-08-01T06:22:59;4.80;;;2.67;;
10659;SDS011;5378;53.206;13.316;2023-08-01T06:25:47;4.93;;;1.60;;
10659;SDS011;5378;53.206;13.316;2023-08-01T06:28:34;2.40;;;1.57;;
10659;SDS011;5378;53.206;13.316;2023-08-01T06:31:21;1.73;;;1.43;;
10659;SDS011;5378;53.206;13.316;2023-08-01T06:34:08;5.43;;;1.77;;
10659;SDS011;5378;53.206;13.316;2023-08-01T06:36:55;2.83;;;1.70;;
10659;SDS011;5378;53.206;13.316;2023-08-01T06:39:44;3.00;;;1.50;;
10659;SDS011;5378;53.206;13.316;2023-08-01T06:42:31;3.37;;;2.00;;
10659;SDS011;5378;53.206;13.316;2023-08-01T06:45:18;2.30;;;1.50;;
10659;SDS011;5378;53.206;13.316;2023-08-01T06:48:05;4.87;;;1.43;;
10659;SDS011;5378;53.206;13.316;2023-08-01T06:50:53;2.17;;;1.63;;
10659;SDS011;5378;53.206;13.316;2023-08-01T06:53:40;3.53;;;1.83;;
10659;SDS011;5378;53.206;13.316;2023-08-01T06:56:28;2.20;;;1.47;;
10659;SDS011;5378;53.206;13.316;2023-08-01T06:59:15;2.97;;;1.47;;
10659;SDS011;5378;53.206;13.316;2023-08-01T07:02:03;2.50;;;1.43;;
10659;SDS011;5378;53.206;13.316;2023-08-01T07:04:50;2.30;;;1.87;;
10659;SDS011;5378;53.206;13.316;2023-08-01T07:07:37;11.63;;;2.57;;
10659;SDS011;5378;53.206;13.316;2023-08-01T07:10:25;2.77;;;1.53;;
10659;SDS011;5378;53.206;13.316;2023-08-01T07:13:14;4.50;;;1.80;;
10659;SDS011;5378;53.206;13.316;2023-08-01T07:16:01;2.13;;;1.60;;
10659;SDS011;5378;53.206;13.316;2023-08-01T07:18:49;2.90;;;1.57;;
10659;SDS011;5378;53.206;13.316;2023-08-01T07:21:36;5.37;;;2.30;;
10659;SDS011;5378;53.206;13.316;2023-08-01T07:24:23;2.67;;;1.80;;
10659;SDS011;5378;53.206;13.316;2023-08-01T07:27:13;8.43;;;1.90;;
10659;SDS011;5378;53.206;13.316;2023-08-01T07:30:01;4.27;;;2.37;;
10659;SDS011;5378;53.206;13.316;2023-08-01T07:32:49;1.70;;;1.40;;
10659;SDS011;5378;53.206;13.316;2023-08-01T07:35:36;5.40;;;1.60;;
10659;SDS011;5378;53.206;13.316;2023-08-01T07:38:24;7.10;;;1.70;;
10659;SDS011;5378;53.206;13.316;2023-08-01T07:41:12;4.27;;;1.63;;
10659;SDS011;5378;53.206;13.316;2023-08-01T07:44:00;2.43;;;1.73;;
10659;SDS011;5378;53.206;13.316;2023-08-01T07:46:50;4.17;;;2.13;;
10659;SDS011;5378;53.206;13.316;2023-08-01T07:49:37;2.10;;;1.50;;
10659;SDS011;5378;53.206;13.316;2023-08-01T07:52:24;3.70;;;1.70;;
10659;SDS011;5378;53.206;13.316;2023-08-01T07:55:11;2.17;;;1.40;;
10659;SDS011;5378;53.206;13.316;2023-08-01T07:57:58;3.30;;;2.00;;
10659;SDS011;5378;53.206;13.316;2023-08-01T08:00:45;2.70;;;2.13;;
10659;SDS011;5378;53.206;13.316;2023-08-01T08:03:34;2.13;;;1.40;;
10659;SDS011;5378;53.206;13.316;2023-08-01T08:06:21;1.73;;;1.50;;
10659;SDS011;5378;53.206;13.316;2023-08-01T08:09:09;3.30;;;1.13;;
10659;SDS011;5378;53.206;13.316;2023-08-01T08:11:56;1.67;;;1.03;;
10659;SDS011;5378;53.206;13.316;2023-08-01T08:14:43;3.80;;;1.73;;
10659;SDS011;5378;53.206;13.316;2023-08-01T08:17:30;2.10;;;1.03;;
10659;SDS011;5378;53.206;13.316;2023-08-01T08:20:19;2.23;;;1.20;;
10659;SDS011;5378;53.206;13.316;2023-08-01T08:23:06;1.73;;;1.53;;
10659;SDS011;5378;53.206;13.316;2023-08-01T08:25:53;0.80;;;0.67;;
10659;SDS011;5378;53.206;13.316;2023-08-01T08:28:41;1.23;;;0.83;;
10659;SDS011;5378;53.206;13.316;2023-08-01T08:31:28;7.30;;;1.10;;
10659;SDS011;5378;53.206;13.316;2023-08-01T08:34:15;2.07;;;1.17;;
10659;SDS011;5378;53.206;13.316;2023-08-01T08:37:04;1.20;;;0.83;;
10659;SDS011;5378;53.206;13.316;2023-08-01T08:39:52;1.93;;;1.00;;
10659;SDS011;5378;53.206;13.316;2023-08-01T08:42:39;3.60;;;1.27;;
10659;SDS011;5378;53.206;13.316;2023-08-01T08:45:26;1.93;;;1.43;;
10659;SDS011;5378;53.206;13.316;2023-08-01T08:48:18;1.93;;;0.90;;
10659;SDS011;5378;53.206;13.316;2023-08-01T08:51:05;1.83;;;1.00;;
10659;SDS011;5378;53.206;13.316;2023-08-01T08:53:56;1.77;;;1.40;;
10659;SDS011;5378;53.206;13.316;2023-08-01T08:56:44;1.03;;;0.93;;
10659;SDS011;5378;53.206;13.316;2023-08-01T08:59:31;1.40;;;0.80;;
10659;SDS011;5378;53.206;13.316;2023-08-01T09:02:19;2.20;;;1.63;;
10659;SDS011;5378;53.206;13.316;2023-08-01T09:05:07;3.20;;;1.70;;
10659;SDS011;5378;53.206;13.316;2023-08-01T09:07:56;3.10;;;2.10;;
10659;SDS011;5378;53.206;13.316;2023-08-01T09:10:45;1.87;;;1.37;;
10659;SDS011;5378;53.206;13.316;2023-08-01T09:13:34;2.20;;;1.60;;
10659;SDS011;5378;53.206;13.316;2023-08-01T09:16:21;1.63;;;1.30;;
10659;SDS011;5378;53.206;13.316;2023-08-01T09:19:09;2.30;;;1.47;;
10659;SDS011;5378;53.206;13.316;2023-08-01T09:21:58;3.80;;;1.67;;
10659;SDS011;5378;53.206;13.316;2023-08-01T09:24:52;2.30;;;1.70;;
10659;SDS011;5378;53.206;13.316;2023-08-01T09:27:41;2.80;;;1.73;;
10659;SDS011;5378;53.206;13.316;2023-08-01T09:30:28;2.50;;;1.63;;
10659;SDS011;5378;53.206;13.316;2023-08-01T09:33:17;2.67;;;1.27;;
10659;SDS011;5378;53.206;13.316;2023-08-01T09:36:06;2.30;;;1.40;;
10659;SDS011;5378;53.206;13.316;2023-08-01T09:38:57;2.40;;;1.60;;
10659;SDS011;5378;53.206;13.316;2023-08-01T09:41:45;2.40;;;1.63;;
10659;SDS011;5378;53.206;13.316;2023-08-01T09:44:34;4.77;;;1.53;;
10659;SDS011;5378;53.206;13.316;2023-08-01T09:47:22;1.20;;;1.03;;
10659;SDS011;5378;53.206;13.316;2023-08-01T09:50:10;1.10;;;0.70;;
10659;SDS011;5378;53.206;13.316;2023-08-01T09:53:06;1.53;;;1.00;;
10659;SDS011;5378;53.206;13.316;2023-08-01T09:55:54;2.50;;;1.20;;
10659;SDS011;5378;53.206;13.316;2023-08-01T09:58:42;2.47;;;0.90;;
10659;SDS011;5378;53.206;13.316;2023-08-01T10:01:32;3.17;;;1.43;;
10659;SDS011;5378;53.206;13.316;2023-08-01T10:04:21;3.90;;;1.20;;
10659;SDS011;5378;53.206;13.316;2023-08-01T10:07:11;1.10;;;0.80;;
10659;SDS011;5378;53.206;13.316;2023-08-01T10:10:00;1.10;;;0.90;;
10659;SDS011;5378;53.206;13.316;2023-08-01T10:12:49;1.27;;;0.80;;
10659;SDS011;5378;53.206;13.316;2023-08-01T10:15:38;1.27;;;0.73;;
10659;SDS011;5378;53.206;13.316;2023-08-01T10:18:29;0.73;;;0.40;;
10659;SDS011;5378;53.206;13.316;2023-08-01T10:21:17;1.80;;;0.67;;
10659;SDS011;5378;53.206;13.316;2023-08-01T10:24:06;1.80;;;0.80;;
10659;SDS011;5378;53.206;13.316;2023-08-01T10:26:54;1.10;;;0.70;;
10659;SDS011;5378;53.206;13.316;2023-08-01T10:29:42;3.00;;;0.80;;
10659;SDS011;5378;53.206;13.316;2023-08-01T10:32:30;0.97;;;0.60;;
10659;SDS011;5378;53.206;13.316;2023-08-01T10:35:20;4.17;;;1.00;;
10659;SDS011;5378;53.206;13.316;2023-08-01T10:38:18;1.63;;;1.00;;
10659;SDS011;5378;53.206;13.316;2023-08-01T10:41:05;1.60;;;0.90;;
10659;SDS011;5378;53.206;13.316;2023-08-01T10:43:52;1.40;;;0.90;;
10659;SDS011;5378;53.206;13.316;2023-08-01T10:46:52;11.77;;;0.80;;
10659;SDS011;5378;53.206;13.316;2023-08-01T10:49:41;2.30;;;1.40;;
10659;SDS011;5378;53.206;13.316;2023-08-01T10:52:31;0.90;;;0.80;;
10659;SDS011;5378;53.206;13.316;2023-08-01T10:55:18;2.20;;;1.30;;
10659;SDS011;5378;53.206;13.316;2023-08-01T10:58:05;1.50;;;1.30;;
10659;SDS011;5378;53.206;13.316;2023-08-01T11:00:57;1.30;;;1.20;;
10659;SDS011;5378;53.206;13.316;2023-08-01T11:03:45;2.00;;;1.40;;
10659;SDS011;5378;53.206;13.316;2023-08-01T11:06:41;1.97;;;1.40;;
10659;SDS011;5378;53.206;13.316;2023-08-01T11:09:31;2.23;;;1.50;;
10659;SDS011;5378;53.206;13.316;2023-08-01T11:12:18;4.23;;;2.07;;
10659;SDS011;5378;53.206;13.316;2023-08-01T11:15:05;1.93;;;1.50;;
10659;SDS011;5378;53.206;13.316;2023-08-01T11:17:55;4.10;;;2.20;;
10659;SDS011;5378;53.206;13.316;2023-08-01T11:20:42;1.43;;;1.33;;
10659;SDS011;5378;53.206;13.316;2023-08-01T11:23:29;2.30;;;1.80;;
10659;SDS011;5378;53.206;13.316;2023-08-01T11:26:18;3.17;;;2.07;;
10659;SDS011;5378;53.206;13.316;2023-08-01T11:29:06;3.87;;;2.20;;
10659;SDS011;5378;53.206;13.316;2023-08-01T11:31:54;2.87;;;2.07;;
10659;SDS011;5378;53.206;13.316;2023-08-01T11:34:42;10.83;;;2.70;;
10659;SDS011;5378;53.206;13.316;2023-08-01T11:37:31;2.93;;;2.27;;
10659;SDS011;5378;53.206;13.316;2023-08-01T11:40:19;3.57;;;2.03;;
10659;SDS011;5378;53.206;13.316;2023-08-01T11:43:08;6.50;;;2.17;;
10659;SDS011;5378;53.206;13.316;2023-08-01T11:45:56;2.50;;;2.10;;
10659;SDS011;5378;53.206;13.316;2023-08-01T11:48:44;3.50;;;2.43;;
10659;SDS011;5378;53.206;13.316;2023-08-01T11:51:38;5.50;;;2.80;;
10659;SDS011;5378;53.206;13.316;2023-08-01T11:54:26;3.63;;;2.70;;
10659;SDS011;5378;53.206;13.316;2023-08-01T11:57:13;2.77;;;2.20;;
10659;SDS011;5378;53.206;13.316;2023-08-01T12:00:01;4.40;;;2.87;;
10659;SDS011;5378;53.206;13.316;2023-08-01T12:03:03;3.87;;;2.90;;
10659;SDS011;5378;53.206;13.316;2023-08-01T12:05:51;5.07;;;2.33;;
10659;SDS011;5378;53.206;13.316;2023-08-01T12:08:39;4.33;;;2.90;;
10659;SDS011;5378;53.206;13.316;2023-08-01T12:11:26;3.27;;;2.60;;
10659;SDS011;5378;53.206;13.316;2023-08-01T12:14:15;3.93;;;3.20;;
10659;SDS011;5378;53.206;13.316;2023-08-01T12:17:04;2.33;;;2.07;;
10659;SDS011;5378;53.206;13.316;2023-08-01T12:19:51;2.40;;;1.93;;
10659;SDS011;5378;53.206;13.316;2023-08-01T12:22:38;2.40;;;1.70;;
10659;SDS011;5378;53.206;13.316;2023-08-01T12:25:26;3.73;;;2.23;;
10659;SDS011;5378;53.206;13.316;2023-08-01T12:28:13;2.17;;;1.70;;
10659;SDS011;5378;53.206;13.316;2023-08-01T12:31:01;3.43;;;1.60;;
10659;SDS011;5378;53.206;13.316;2023-08-01T12:33:51;5.03;;;1.67;;
10659;SDS011;5378;53.206;13.316;2023-08-01T12:36:39;2.83;;;1.60;;
10659;SDS011;5378;53.206;13.316;2023-08-01T12:39:26;5.03;;;1.90;;
10659;SDS011;5378;53.206;13.316;2023-08-01T12:42:13;2.87;;;2.07;;
10659;SDS011;5378;53.206;13.316;2023-08-01T12:45:00;4.20;;;1.47;;
10659;SDS011;5378;53.206;13.316;2023-08-01T12:47:49;3.13;;;1.63;;
10659;SDS011;5378;53.206;13.316;2023-08-01T12:50:37;4.10;;;1.93;;
10659;SDS011;5378;53.206;13.316;2023-08-01T12:53:25;2.67;;;1.90;;
10659;SDS011;5378;53.206;13.316;2023-08-01T12:56:17;3.20;;;1.80;;
10659;SDS011;5378;53.206;13.316;2023-08-01T12:59:04;6.13;;;2.07;;
10659;SDS011;5378;53.206;13.316;2023-08-01T13:01:51;3.27;;;2.03;;
10659;SDS011;5378;53.206;13.316;2023-08-01T13:04:39;3.60;;;1.53;;
10659;SDS011;5378;53.206;13.316;2023-08-01T13:07:27;7.77;;;2.23;;
10659;SDS011;5378;53.206;13.316;2023-08-01T13:10:17;3.43;;;2.07;;
10659;SDS011;5378;53.206;13.316;2023-08-01T13:13:04;4.40;;;2.73;;
10659;SDS011;5378;53.206;13.316;2023-08-01T13:15:51;6.30;;;2.10;;
10659;SDS011;5378;53.206;13.316;2023-08-01T13:18:40;7.07;;;3.07;;
10659;SDS011;5378;53.206;13.316;2023-08-01T13:21:30;5.63;;;2.23;;
10659;SDS011;5378;53.206;13.316;2023-08-01T13:24:19;2.83;;;2.07;;
10659;SDS011;5378;53.206;13.316;2023-08-01T13:27:06;3.10;;;1.83;;
10659;SDS011;5378;53.206;13.316;2023-08-01T13:29:55;5.40;;;2.27;;
10659;SDS011;5378;53.206;13.316;2023-08-01T13:32:42;5.30;;;1.73;;
10659;SDS011;5378;53.206;13.316;2023-08-01T13:35:30;2.97;;;1.87;;
10659;SDS011;5378;53.206;13.316;2023-08-01T13:38:17;3.20;;;2.40;;
10659;SDS011;5378;53.206;13.316;2023-08-01T13:41:05;3.90;;;2.20;;
10659;SDS011;5378;53.206;13.316;2023-08-01T13:43:52;2.47;;;1.87;;
10659;SDS011;5378;53.206;13.316;2023-08-01T13:46:39;5.37;;;2.40;;
10659;SDS011;5378;53.206;13.316;2023-08-01T13:49:27;3.43;;;1.50;;
10659;SDS011;5378;53.206;13.316;2023-08-01T13:52:13;4.13;;;2.37;;
10659;SDS011;5378;53.206;13.316;2023-08-01T13:55:01;3.37;;;2.27;;
10659;SDS011;5378;53.206;13.316;2023-08-01T13:57:49;5.10;;;2.40;;
10659;SDS011;5378;53.206;13.316;2023-08-01T14:00:37;5.63;;;2.43;;
10659;SDS011;5378;53.206;13.316;2023-08-01T14:03:24;6.77;;;2.43;;
10659;SDS011;5378;53.206;13.316;2023-08-01T14:06:12;3.13;;;2.23;;
10659;SDS011;5378;53.206;13.316;2023-08-01T14:09:00;4.00;;;2.17;;
10659;SDS011;5378;53.206;13.316;2023-08-01T14:11:47;3.13;;;1.50;;
10659;SDS011;5378;53.206;13.316;2023-08-01T14:14:35;1.97;;;1.50;;
10659;SDS011;5378;53.206;13.316;2023-08-01T14:17:22;1.30;;;1.20;;
10659;SDS011;5378;53.206;13.316;2023-08-01T14:20:10;2.73;;;1.17;;
10659;SDS011;5378;53.206;13.316;2023-08-01T14:22:57;2.53;;;1.27;;
10659;SDS011;5378;53.206;13.316;2023-08-01T14:25:45;1.60;;;1.23;;
10659;SDS011;5378;53.206;13.316;2023-08-01T14:28:32;4.03;;;1.40;;
10659;SDS011;5378;53.206;13.316;2023-08-01T14:31:21;1.83;;;1.40;;
10659;SDS011;5378;53.206;13.316;2023-08-01T14:34:08;3.73;;;1.90;;
10659;SDS011;5378;53.206;13.316;2023-08-01T14:36:55;2.10;;;1.70;;
10659;SDS011;5378;53.206;13.316;2023-08-01T14:39:42;2.20;;;1.73;;
10659;SDS011;5378;53.206;13.316;2023-08-01T14:42:30;2.13;;;1.53;;
10659;SDS011;5378;53.206;13.316;2023-08-01T14:45:17;2.03;;;1.40;;
10659;SDS011;5378;53.206;13.316;2023-08-01T14:48:06;4.07;;;2.10;;
10659;SDS011;5378;53.206;13.316;2023-08-01T14:50:53;2.40;;;1.80;;
10659;SDS011;5378;53.206;13.316;2023-08-01T14:53:41;3.43;;;1.63;;
10659;SDS011;5378;53.206;13.316;2023-08-01T14:56:28;2.13;;;1.40;;
10659;SDS011;5378;53.206;13.316;2023-08-01T14:59:16;6.13;;;1.83;;
10659;SDS011;5378;53.206;13.316;2023-08-01T15:02:03;1.83;;;1.60;;
10659;SDS011;5378;53.206;13.316;2023-08-01T15:04:52;4.30;;;1.50;;
10659;SDS011;5378;53.206;13.316;2023-08-01T15:07:41;2.73;;;1.80;;
10659;SDS011;5378;53.206;13.316;2023-08-01T15:10:28;2.60;;;1.53;;
10659;SDS011;5378;53.206;13.316;2023-08-01T15:13:15;2.60;;;1.70;;
10659;SDS011;5378;53.206;13.316;2023-08-01T15:16:02;4.37;;;1.87;;
10659;SDS011;5378;53.206;13.316;2023-08-01T15:18:49;2.07;;;1.67;;
10659;SDS011;5378;53.206;13.316;2023-08-01T15:21:38;3.90;;;2.13;;
10659;SDS011;5378;53.206;13.316;2023-08-01T15:24:25;4.03;;;1.90;;
10659;SDS011;5378;53.206;13.316;2023-08-01T15:27:12;1.73;;;1.57;;
10659;SDS011;5378;53.206;13.316;2023-08-01T15:30:00;4.17;;;1.57;;
10659;SDS011;5378;53.206;13.316;2023-08-01T15:32:47;1.70;;;1.40;;
10659;SDS011;5378;53.206;13.316;2023-08-01T15:35:34;1.83;;;1.67;;
10659;SDS011;5378;53.206;13.316;2023-08-01T15:38:23;3.07;;;1.80;;
10659;SDS011;5378;53.206;13.316;2023-08-01T15:41:10;3.53;;;1.73;;
10659;SDS011;5378;53.206;13.316;2023-08-01T15:43:58;6.77;;;2.27;;
10659;SDS011;5378;53.206;13.316;2023-08-01T15:46:45;9.07;;;1.87;;
10659;SDS011;5378;53.206;13.316;2023-08-01T15:49:32;7.20;;;1.63;;
10659;SDS011;5378;53.206;13.316;2023-08-01T15:52:20;1.63;;;1.30;;
10659;SDS011;5378;53.206;13.316;2023-08-01T15:55:09;4.80;;;1.30;;
10659;SDS011;5378;53.206;13.316;2023-08-01T15:57:56;3.50;;;1.50;;
10659;SDS011;5378;53.206;13.316;2023-08-01T16:00:43;2.40;;;1.50;;
10659;SDS011;5378;53.206;13.316;2023-08-01T16:03:30;6.93;;;1.67;;
10659;SDS011;5378;53.206;13.316;2023-08-01T16:06:18;4.73;;;1.83;;
10659;SDS011;5378;53.206;13.316;2023-08-01T16:09:05;1.37;;;1.27;;
10659;SDS011;5378;53.206;13.316;2023-08-01T16:11:53;2.70;;;1.40;;
10659;SDS011;5378;53.206;13.316;2023-08-01T16:14:40;1.20;;;1.10;;
10659;SDS011;5378;53.206;13.316;2023-08-01T16:17:27;2.53;;;1.80;;
10659;SDS011;5378;53.206;13.316;2023-08-01T16:20:14;2.93;;;1.60;;
10659;SDS011;5378;53.206;13.316;2023-08-01T16:23:02;1.97;;;1.50;;
10659;SDS011;5378;53.206;13.316;2023-08-01T16:25:50;2.53;;;1.60;;
10659;SDS011;5378;53.206;13.316;2023-08-01T16:28:39;2.70;;;1.90;;
10659;SDS011;5378;53.206;13.316;2023-08-01T16:31:26;1.97;;;1.60;;
10659;SDS011;5378;53.206;13.316;2023-08-01T16:34:13;1.50;;;1.03;;
10659;SDS011;5378;53.206;13.316;2023-08-01T16:37:00;3.00;;;1.37;;
10659;SDS011;5378;53.206;13.316;2023-08-01T16:39:47;4.17;;;1.53;;
10659;SDS011;5378;53.206;13.316;2023-08-01T16:42:35;2.20;;;1.67;;
10659;SDS011;5378;53.206;13.316;2023-08-01T16:45:24;4.07;;;1.90;;
10659;SDS011;5378;53.206;13.316;2023-08-01T16:48:11;2.80;;;1.33;;
10659;SDS011;5378;53.206;13.316;2023-08-01T16:50:57;1.67;;;1.40;;
10659;SDS011;5378;53.206;13.316;2023-08-01T16:53:45;2.90;;;1.40;;